sensor_id;sensor_type;location;lat;lon;timestamp;pressure;altitude;pressure_sealevel;temperature;humidity
65131;BME280;51709;54.912;8.316;2023-11-19T00:00:38;100546.97;;;6.22;95.09
65131;BME280;51709;54.912;8.316;2023-11-19T00:05:59;100517.44;;;6.20;94.95
65131;BME280;51709;54.912;8.316;2023-11-19T00:11:20;100505.50;;;6.23;95.28
65131;BME280;51709;54.912;8.316;2023-11-19T00:16:40;100492.16;;;6.21;95.33
65131;BME280;51709;54.912;8.316;2023-11-19T00:22:00;100492.75;;;6.25;95.33
65131;BME280;51709;54.912;8.316;2023-11-19T00:27:24;100482.25;;;6.22;95.09
65131;BME280;51709;54.912;8.316;2023-11-19T00:32:45;100462.06;;;6.26;95.02
65131;BME280;51709;54.912;8.316;2023-11-19T00:38:06;100431.28;;;6.28;95.02
65131;BME280;51709;54.912;8.316;2023-11-19T00:43:26;100428.56;;;6.28;95.03
65131;BME280;51709;54.912;8.316;2023-11-19T00:48:47;100409.53;;;6.30;95.17
65131;BME280;51709;54.912;8.316;2023-11-19T00:54:07;100405.31;;;6.27;95.13
65131;BME280;51709;54.912;8.316;2023-11-19T00:59:28;100379.88;;;6.30;95.11
65131;BME280;51709;54.912;8.316;2023-11-19T01:04:48;100378.59;;;6.34;95.19
65131;BME280;51709;54.912;8.316;2023-11-19T01:10:09;100362.88;;;6.29;95.10
65131;BME280;51709;54.912;8.316;2023-11-19T01:15:30;100348.22;;;6.32;95.38
65131;BME280;51709;54.912;8.316;2023-11-19T01:20:51;100338.16;;;6.34;95.27
65131;BME280;51709;54.912;8.316;2023-11-19T01:26:12;100318.69;;;6.40;95.43
65131;BME280;51709;54.912;8.316;2023-11-19T01:31:33;100322.22;;;6.41;95.34
65131;BME280;51709;54.912;8.316;2023-11-19T01:36:54;100294.25;;;6.42;95.69
65131;BME280;51709;54.912;8.316;2023-11-19T01:42:15;100268.00;;;6.44;95.75
65131;BME280;51709;54.912;8.316;2023-11-19T01:47:36;100262.44;;;6.45;95.48
65131;BME280;51709;54.912;8.316;2023-11-19T01:52:57;100257.59;;;6.49;95.67
65131;BME280;51709;54.912;8.316;2023-11-19T01:58:18;100239.59;;;6.49;95.56
65131;BME280;51709;54.912;8.316;2023-11-19T02:03:39;100221.25;;;6.53;95.71
65131;BME280;51709;54.912;8.316;2023-11-19T02:09:01;100211.00;;;6.56;95.21
65131;BME280;51709;54.912;8.316;2023-11-19T02:14:25;100200.22;;;6.56;95.07
65131;BME280;51709;54.912;8.316;2023-11-19T02:19:46;100181.16;;;6.58;95.21
65131;BME280;51709;54.912;8.316;2023-11-19T02:25:20;100164.44;;;6.54;94.86
65131;BME280;51709;54.912;8.316;2023-11-19T02:30:44;100151.34;;;6.59;95.06
65131;BME280;51709;54.912;8.316;2023-11-19T02:36:05;100135.16;;;6.59;95.15
65131;BME280;51709;54.912;8.316;2023-11-19T02:41:27;100120.66;;;6.60;95.42
65131;BME280;51709;54.912;8.316;2023-11-19T02:46:47;100125.06;;;6.61;95.12
65131;BME280;51709;54.912;8.316;2023-11-19T02:52:09;100107.63;;;6.56;95.04
65131;BME280;51709;54.912;8.316;2023-11-19T02:57:31;100097.69;;;6.56;94.95
65131;BME280;51709;54.912;8.316;2023-11-19T03:02:52;100084.88;;;6.58;94.83
65131;BME280;51709;54.912;8.316;2023-11-19T03:08:19;100077.06;;;6.55;94.74
65131;BME280;51709;54.912;8.316;2023-11-19T03:13:43;100055.34;;;6.57;94.75
65131;BME280;51709;54.912;8.316;2023-11-19T03:19:04;100059.91;;;6.56;94.50
65131;BME280;51709;54.912;8.316;2023-11-19T03:24:24;100054.78;;;6.53;94.91
65131;BME280;51709;54.912;8.316;2023-11-19T03:29:45;100039.47;;;6.54;94.61
65131;BME280;51709;54.912;8.316;2023-11-19T03:35:06;100025.22;;;6.61;94.94
65131;BME280;51709;54.912;8.316;2023-11-19T03:40:29;100023.22;;;6.63;94.97
65131;BME280;51709;54.912;8.316;2023-11-19T03:45:50;100006.69;;;6.66;94.92
65131;BME280;51709;54.912;8.316;2023-11-19T03:51:11;99991.03;;;6.70;95.14
65131;BME280;51709;54.912;8.316;2023-11-19T03:56:35;99975.72;;;6.70;94.96
65131;BME280;51709;54.912;8.316;2023-11-19T04:01:56;99978.47;;;6.78;95.10
65131;BME280;51709;54.912;8.316;2023-11-19T04:07:16;99961.66;;;6.84;95.15
65131;BME280;51709;54.912;8.316;2023-11-19T04:12:37;99956.78;;;6.88;94.75
65131;BME280;51709;54.912;8.316;2023-11-19T04:17:58;99954.94;;;6.88;95.13
65131;BME280;51709;54.912;8.316;2023-11-19T04:23:18;99931.19;;;6.92;95.09
65131;BME280;51709;54.912;8.316;2023-11-19T04:28:39;99932.25;;;6.99;94.98
65131;BME280;51709;54.912;8.316;2023-11-19T04:34:00;99927.38;;;7.02;95.00
65131;BME280;51709;54.912;8.316;2023-11-19T04:39:21;99917.28;;;7.12;94.90
65131;BME280;51709;54.912;8.316;2023-11-19T04:44:42;99910.13;;;7.21;94.88
65131;BME280;51709;54.912;8.316;2023-11-19T04:50:04;99906.06;;;7.25;94.83
65131;BME280;51709;54.912;8.316;2023-11-19T04:55:24;99906.91;;;7.25;95.02
65131;BME280;51709;54.912;8.316;2023-11-19T05:00:45;99900.34;;;7.28;94.82
65131;BME280;51709;54.912;8.316;2023-11-19T05:06:06;99891.13;;;7.38;94.77
65131;BME280;51709;54.912;8.316;2023-11-19T05:11:27;99888.44;;;7.47;94.63
65131;BME280;51709;54.912;8.316;2023-11-19T05:16:50;99880.72;;;7.52;94.56
65131;BME280;51709;54.912;8.316;2023-11-19T05:22:11;99883.44;;;7.60;94.51
65131;BME280;51709;54.912;8.316;2023-11-19T05:27:31;99864.56;;;7.68;94.59
65131;BME280;51709;54.912;8.316;2023-11-19T05:32:52;99853.28;;;7.80;94.64
65131;BME280;51709;54.912;8.316;2023-11-19T05:38:13;99844.00;;;7.91;94.36
65131;BME280;51709;54.912;8.316;2023-11-19T05:43:33;99851.44;;;7.97;94.33
65131;BME280;51709;54.912;8.316;2023-11-19T05:48:54;99858.22;;;8.09;94.29
65131;BME280;51709;54.912;8.316;2023-11-19T05:54:14;99841.00;;;8.18;94.38
65131;BME280;51709;54.912;8.316;2023-11-19T05:59:35;99833.09;;;8.32;94.25
65131;BME280;51709;54.912;8.316;2023-11-19T06:04:56;99836.78;;;8.48;94.43
65131;BME280;51709;54.912;8.316;2023-11-19T06:10:17;99830.06;;;9.14;94.14
65131;BME280;51709;54.912;8.316;2023-11-19T06:15:37;99826.91;;;10.25;93.12
65131;BME280;51709;54.912;8.316;2023-11-19T06:20:58;99828.88;;;10.91;92.76
65131;BME280;51709;54.912;8.316;2023-11-19T06:26:18;99828.22;;;11.18;92.95
65131;BME280;51709;54.912;8.316;2023-11-19T06:31:40;99827.25;;;11.40;93.42
65131;BME280;51709;54.912;8.316;2023-11-19T06:37:01;99832.06;;;11.53;93.35
65131;BME280;51709;54.912;8.316;2023-11-19T06:42:24;99826.50;;;11.61;93.56
65131;BME280;51709;54.912;8.316;2023-11-19T06:47:45;99822.47;;;11.72;93.41
65131;BME280;51709;54.912;8.316;2023-11-19T06:53:05;99830.53;;;11.80;93.41
65131;BME280;51709;54.912;8.316;2023-11-19T06:58:30;99833.53;;;11.85;93.36
65131;BME280;51709;54.912;8.316;2023-11-19T07:03:51;99846.88;;;11.80;93.55
65131;BME280;51709;54.912;8.316;2023-11-19T07:09:12;99850.72;;;11.71;93.75
65131;BME280;51709;54.912;8.316;2023-11-19T07:14:34;99841.25;;;11.67;93.92
65131;BME280;51709;54.912;8.316;2023-11-19T07:19:55;99841.25;;;11.67;94.11
65131;BME280;51709;54.912;8.316;2023-11-19T07:25:15;99855.53;;;11.69;94.09
65131;BME280;51709;54.912;8.316;2023-11-19T07:30:37;99852.59;;;11.70;94.07
65131;BME280;51709;54.912;8.316;2023-11-19T07:35:58;99863.09;;;11.73;94.35
65131;BME280;51709;54.912;8.316;2023-11-19T07:41:18;99866.94;;;11.79;94.36
65131;BME280;51709;54.912;8.316;2023-11-19T07:46:41;99870.97;;;11.83;94.87
65131;BME280;51709;54.912;8.316;2023-11-19T07:52:03;99874.09;;;11.80;94.90
65131;BME280;51709;54.912;8.316;2023-11-19T07:57:24;99879.53;;;11.80;95.08
65131;BME280;51709;54.912;8.316;2023-11-19T08:02:45;99882.91;;;11.82;95.17
65131;BME280;51709;54.912;8.316;2023-11-19T08:08:05;99883.81;;;11.89;95.16
65131;BME280;51709;54.912;8.316;2023-11-19T08:13:27;99897.69;;;11.94;95.19
65131;BME280;51709;54.912;8.316;2023-11-19T08:18:47;99914.50;;;11.97;95.40
65131;BME280;51709;54.912;8.316;2023-11-19T08:24:08;99904.06;;;12.01;95.54
65131;BME280;51709;54.912;8.316;2023-11-19T08:29:28;99904.59;;;12.11;95.47
65131;BME280;51709;54.912;8.316;2023-11-19T08:34:49;99905.16;;;12.21;95.41
65131;BME280;51709;54.912;8.316;2023-11-19T08:40:10;99914.34;;;12.20;95.31
65131;BME280;51709;54.912;8.316;2023-11-19T08:45:31;99902.16;;;12.16;95.51
65131;BME280;51709;54.912;8.316;2023-11-19T08:50:52;99920.75;;;12.12;95.56
65131;BME280;51709;54.912;8.316;2023-11-19T08:56:13;99908.06;;;12.19;95.48
65131;BME280;51709;54.912;8.316;2023-11-19T09:01:35;99924.88;;;12.23;95.50
65131;BME280;51709;54.912;8.316;2023-11-19T09:06:57;99909.59;;;12.43;95.16
65131;BME280;51709;54.912;8.316;2023-11-19T09:12:18;99923.06;;;12.72;94.87
65131;BME280;51709;54.912;8.316;2023-11-19T09:17:39;99940.47;;;12.92;94.76
65131;BME280;51709;54.912;8.316;2023-11-19T09:22:59;99926.78;;;12.86;94.80
65131;BME280;51709;54.912;8.316;2023-11-19T09:28:20;99946.97;;;12.91;94.73
65131;BME280;51709;54.912;8.316;2023-11-19T09:33:41;99958.25;;;12.88;94.66
65131;BME280;51709;54.912;8.316;2023-11-19T09:39:01;99935.22;;;12.91;94.83
65131;BME280;51709;54.912;8.316;2023-11-19T09:44:22;99932.69;;;12.89;94.66
65131;BME280;51709;54.912;8.316;2023-11-19T09:49:43;99939.72;;;13.26;94.12
65131;BME280;51709;54.912;8.316;2023-11-19T09:55:04;99945.69;;;14.04;92.57
65131;BME280;51709;54.912;8.316;2023-11-19T10:00:25;99960.78;;;13.59;92.57
65131;BME280;51709;54.912;8.316;2023-11-19T10:05:45;99954.75;;;13.36;93.39
65131;BME280;51709;54.912;8.316;2023-11-19T10:11:06;99941.22;;;13.28;93.13
65131;BME280;51709;54.912;8.316;2023-11-19T10:16:30;99952.53;;;13.25;92.99
65131;BME280;51709;54.912;8.316;2023-11-19T10:21:52;99955.66;;;13.22;93.12
65131;BME280;51709;54.912;8.316;2023-11-19T10:27:12;99964.63;;;13.16;93.02
65131;BME280;51709;54.912;8.316;2023-11-19T10:32:34;99958.53;;;13.14;93.36
65131;BME280;51709;54.912;8.316;2023-11-19T10:37:55;99965.81;;;13.35;93.15
65131;BME280;51709;54.912;8.316;2023-11-19T10:43:16;99958.91;;;13.32;92.97
65131;BME280;51709;54.912;8.316;2023-11-19T10:48:36;99960.09;;;13.23;93.00
65131;BME280;51709;54.912;8.316;2023-11-19T10:54:03;99983.84;;;13.08;93.39
65131;BME280;51709;54.912;8.316;2023-11-19T10:59:28;99952.69;;;13.17;93.44
65131;BME280;51709;54.912;8.316;2023-11-19T11:04:54;99952.72;;;13.51;92.80
65131;BME280;51709;54.912;8.316;2023-11-19T11:10:16;99969.50;;;13.76;92.24
65131;BME280;51709;54.912;8.316;2023-11-19T11:15:38;99958.31;;;13.71;92.49
65131;BME280;51709;54.912;8.316;2023-11-19T11:21:00;99973.19;;;13.34;92.94
65131;BME280;51709;54.912;8.316;2023-11-19T11:26:52;99970.75;;;13.18;93.16
65131;BME280;51709;54.912;8.316;2023-11-19T11:38:03;99965.22;;;13.12;93.23
65131;BME280;51709;54.912;8.316;2023-11-19T11:43:43;99958.78;;;12.98;93.49
65131;BME280;51709;54.912;8.316;2023-11-19T11:49:06;99969.22;;;12.95;93.76
65131;BME280;51709;54.912;8.316;2023-11-19T11:54:28;99973.19;;;12.92;94.05
65131;BME280;51709;54.912;8.316;2023-11-19T11:59:50;99966.41;;;12.88;94.15
65131;BME280;51709;54.912;8.316;2023-11-19T12:05:11;99974.53;;;12.82;94.08
65131;BME280;51709;54.912;8.316;2023-11-19T12:10:36;99965.91;;;12.78;93.96
65131;BME280;51709;54.912;8.316;2023-11-19T12:21:28;99961.97;;;12.81;94.11
65131;BME280;51709;54.912;8.316;2023-11-19T12:26:50;99966.25;;;12.90;94.06
65131;BME280;51709;54.912;8.316;2023-11-19T12:32:13;99955.81;;;12.93;94.08
65131;BME280;51709;54.912;8.316;2023-11-19T12:37:39;99970.72;;;12.97;94.09
65131;BME280;51709;54.912;8.316;2023-11-19T12:42:59;99970.81;;;13.04;93.84
65131;BME280;51709;54.912;8.316;2023-11-19T12:48:20;99958.31;;;12.95;94.03
65131;BME280;51709;54.912;8.316;2023-11-19T12:53:51;99964.50;;;12.82;94.08
65131;BME280;51709;54.912;8.316;2023-11-19T12:59:15;99971.63;;;12.83;94.44
65131;BME280;51709;54.912;8.316;2023-11-19T13:04:36;99978.38;;;12.87;94.19
65131;BME280;51709;54.912;8.316;2023-11-19T13:10:03;99979.16;;;12.81;94.16
65131;BME280;51709;54.912;8.316;2023-11-19T13:15:24;99985.84;;;12.79;94.07
65131;BME280;51709;54.912;8.316;2023-11-19T13:20:45;99976.16;;;12.76;94.32
65131;BME280;51709;54.912;8.316;2023-11-19T13:26:06;99966.31;;;12.75;94.21
65131;BME280;51709;54.912;8.316;2023-11-19T13:31:28;99966.56;;;12.80;94.14
65131;BME280;51709;54.912;8.316;2023-11-19T13:36:48;99963.59;;;12.75;93.89
65131;BME280;51709;54.912;8.316;2023-11-19T13:42:09;99973.19;;;12.71;94.14
65131;BME280;51709;54.912;8.316;2023-11-19T13:47:32;99980.06;;;12.67;94.33
65131;BME280;51709;54.912;8.316;2023-11-19T13:52:53;99971.41;;;12.63;94.23
65131;BME280;51709;54.912;8.316;2023-11-19T13:58:13;99988.06;;;12.54;94.39
65131;BME280;51709;54.912;8.316;2023-11-19T14:03:34;99978.03;;;12.54;94.37
65131;BME280;51709;54.912;8.316;2023-11-19T14:08:55;99983.06;;;12.57;94.25
65131;BME280;51709;54.912;8.316;2023-11-19T14:14:15;99984.78;;;12.58;94.42
65131;BME280;51709;54.912;8.316;2023-11-19T14:19:37;99995.50;;;12.60;94.29
65131;BME280;51709;54.912;8.316;2023-11-19T14:24:59;99993.22;;;12.63;94.35
65131;BME280;51709;54.912;8.316;2023-11-19T14:30:20;100002.91;;;12.66;94.26
65131;BME280;51709;54.912;8.316;2023-11-19T14:35:40;99994.72;;;12.66;94.15
65131;BME280;51709;54.912;8.316;2023-11-19T14:41:01;100006.28;;;12.68;94.15
65131;BME280;51709;54.912;8.316;2023-11-19T14:46:22;100006.91;;;12.70;94.25
65131;BME280;51709;54.912;8.316;2023-11-19T14:51:42;100016.78;;;12.71;94.23
65131;BME280;51709;54.912;8.316;2023-11-19T14:57:05;100016.72;;;12.65;94.28
65131;BME280;51709;54.912;8.316;2023-11-19T15:02:27;100013.34;;;12.63;94.51
65131;BME280;51709;54.912;8.316;2023-11-19T15:07:47;100026.06;;;12.41;94.77
65131;BME280;51709;54.912;8.316;2023-11-19T15:13:09;100026.16;;;12.33;95.29
65131;BME280;51709;54.912;8.316;2023-11-19T15:18:30;100024.31;;;12.33;95.16
65131;BME280;51709;54.912;8.316;2023-11-19T15:23:50;100021.38;;;12.35;94.99
65131;BME280;51709;54.912;8.316;2023-11-19T15:29:12;100036.69;;;12.36;95.05
65131;BME280;51709;54.912;8.316;2023-11-19T15:34:34;100041.97;;;12.37;95.10
65131;BME280;51709;54.912;8.316;2023-11-19T15:39:56;100052.47;;;12.40;95.01
65131;BME280;51709;54.912;8.316;2023-11-19T15:45:17;100043.25;;;12.41;94.81
65131;BME280;51709;54.912;8.316;2023-11-19T15:50:38;100040.06;;;12.38;95.08
65131;BME280;51709;54.912;8.316;2023-11-19T15:55:59;100040.66;;;12.33;95.35
65131;BME280;51709;54.912;8.316;2023-11-19T16:01:20;100054.44;;;12.32;95.83
65131;BME280;51709;54.912;8.316;2023-11-19T16:06:41;100047.28;;;12.31;95.82
65131;BME280;51709;54.912;8.316;2023-11-19T16:12:02;100041.84;;;12.31;95.96
65131;BME280;51709;54.912;8.316;2023-11-19T16:17:24;100056.53;;;12.30;95.98
65131;BME280;51709;54.912;8.316;2023-11-19T16:22:44;100063.28;;;12.34;95.79
65131;BME280;51709;54.912;8.316;2023-11-19T16:28:05;100066.28;;;12.39;95.74
65131;BME280;51709;54.912;8.316;2023-11-19T16:33:27;100065.50;;;12.45;95.51
65131;BME280;51709;54.912;8.316;2023-11-19T16:38:51;100073.13;;;12.49;95.50
65131;BME280;51709;54.912;8.316;2023-11-19T16:44:13;100070.88;;;12.53;95.54
65131;BME280;51709;54.912;8.316;2023-11-19T16:49:34;100070.47;;;12.56;95.34
65131;BME280;51709;54.912;8.316;2023-11-19T16:54:55;100069.91;;;12.60;95.36
65131;BME280;51709;54.912;8.316;2023-11-19T17:00:16;100079.78;;;12.61;95.17
65131;BME280;51709;54.912;8.316;2023-11-19T17:05:37;100085.03;;;12.63;95.20
65131;BME280;51709;54.912;8.316;2023-11-19T17:11:00;100089.94;;;12.53;95.16
65131;BME280;51709;54.912;8.316;2023-11-19T17:16:21;100093.78;;;12.44;95.34
65131;BME280;51709;54.912;8.316;2023-11-19T17:21:42;100092.75;;;12.45;95.32
65131;BME280;51709;54.912;8.316;2023-11-19T17:27:04;100097.84;;;12.48;95.35
65131;BME280;51709;54.912;8.316;2023-11-19T17:32:25;100104.56;;;12.52;95.10
65131;BME280;51709;54.912;8.316;2023-11-19T17:37:46;100102.91;;;12.51;95.26
65131;BME280;51709;54.912;8.316;2023-11-19T17:43:07;100109.56;;;12.48;95.34
65131;BME280;51709;54.912;8.316;2023-11-19T17:48:27;100102.03;;;12.50;95.25
65131;BME280;51709;54.912;8.316;2023-11-19T17:53:48;100110.41;;;12.49;95.25
65131;BME280;51709;54.912;8.316;2023-11-19T17:59:09;100107.97;;;12.54;95.34
65131;BME280;51709;54.912;8.316;2023-11-19T18:04:30;100104.88;;;12.57;95.12
65131;BME280;51709;54.912;8.316;2023-11-19T18:09:52;100113.78;;;12.51;95.42
65131;BME280;51709;54.912;8.316;2023-11-19T18:15:12;100109.94;;;12.45;95.25
65131;BME280;51709;54.912;8.316;2023-11-19T18:20:33;100115.59;;;12.44;95.39
65131;BME280;51709;54.912;8.316;2023-11-19T18:25:54;100115.59;;;12.44;95.25
65131;BME280;51709;54.912;8.316;2023-11-19T18:31:15;100123.75;;;12.44;94.90
65131;BME280;51709;54.912;8.316;2023-11-19T18:36:36;100112.88;;;12.44;94.41
65131;BME280;51709;54.912;8.316;2023-11-19T18:41:57;100120.00;;;12.45;94.39
65131;BME280;51709;54.912;8.316;2023-11-19T18:47:18;100118.31;;;12.44;94.35
65131;BME280;51709;54.912;8.316;2023-11-19T18:52:39;100123.75;;;12.44;94.32
65131;BME280;51709;54.912;8.316;2023-11-19T18:58:01;100122.09;;;12.43;94.27
65131;BME280;51709;54.912;8.316;2023-11-19T19:03:21;100121.88;;;12.44;94.36
65131;BME280;51709;54.912;8.316;2023-11-19T19:08:44;100132.59;;;12.46;94.40
65131;BME280;51709;54.912;8.316;2023-11-19T19:14:05;100137.66;;;12.49;94.39
65131;BME280;51709;54.912;8.316;2023-11-19T19:19:27;100139.38;;;12.50;94.22
65131;BME280;51709;54.912;8.316;2023-11-19T19:24:48;100141.44;;;12.48;94.05
65131;BME280;51709;54.912;8.316;2023-11-19T19:30:09;100128.81;;;12.47;94.19
65131;BME280;51709;54.912;8.316;2023-11-19T19:35:30;100131.66;;;12.39;94.41
65131;BME280;51709;54.912;8.316;2023-11-19T19:40:51;100131.06;;;12.29;94.59
65131;BME280;51709;54.912;8.316;2023-11-19T19:46:12;100120.94;;;12.23;94.72
65131;BME280;51709;54.912;8.316;2023-11-19T19:51:32;100125.06;;;12.19;94.73
65131;BME280;51709;54.912;8.316;2023-11-19T19:56:53;100133.78;;;12.14;94.73
65131;BME280;51709;54.912;8.316;2023-11-19T20:02:16;100123.75;;;12.15;94.90
65131;BME280;51709;54.912;8.316;2023-11-19T20:07:38;100132.75;;;12.15;94.74
65131;BME280;51709;54.912;8.316;2023-11-19T20:12:59;100135.03;;;12.12;94.73
65131;BME280;51709;54.912;8.316;2023-11-19T20:18:29;100144.19;;;12.11;94.75
65131;BME280;51709;54.912;8.316;2023-11-19T20:23:53;100143.72;;;12.07;94.83
65131;BME280;51709;54.912;8.316;2023-11-19T20:29:13;100134.81;;;11.99;94.91
65131;BME280;51709;54.912;8.316;2023-11-19T20:34:34;100139.97;;;11.94;95.07
65131;BME280;51709;54.912;8.316;2023-11-19T20:39:55;100143.59;;;11.86;95.02
65131;BME280;51709;54.912;8.316;2023-11-19T20:45:15;100138.72;;;11.82;95.16
65131;BME280;51709;54.912;8.316;2023-11-19T20:50:35;100151.38;;;11.75;95.32
65131;BME280;51709;54.912;8.316;2023-11-19T20:55:56;100150.22;;;11.69;95.66
65131;BME280;51709;54.912;8.316;2023-11-19T21:01:17;100160.63;;;11.66;95.39
65131;BME280;51709;54.912;8.316;2023-11-19T21:06:39;100167.13;;;11.56;95.56
65131;BME280;51709;54.912;8.316;2023-11-19T21:12:03;100167.19;;;11.48;95.67
65131;BME280;51709;54.912;8.316;2023-11-19T21:17:24;100170.28;;;11.45;95.99
65131;BME280;51709;54.912;8.316;2023-11-19T21:22:45;100175.56;;;11.39;95.90
65131;BME280;51709;54.912;8.316;2023-11-19T21:28:06;100173.44;;;11.26;96.06
65131;BME280;51709;54.912;8.316;2023-11-19T21:33:26;100169.25;;;11.16;96.25
65131;BME280;51709;54.912;8.316;2023-11-19T21:38:48;100167.13;;;11.03;96.24
65131;BME280;51709;54.912;8.316;2023-11-19T21:44:08;100162.06;;;10.92;96.21
65131;BME280;51709;54.912;8.316;2023-11-19T21:49:34;100156.88;;;10.83;96.27
65131;BME280;51709;54.912;8.316;2023-11-19T21:55:02;100148.94;;;10.73;96.45
65131;BME280;51709;54.912;8.316;2023-11-19T22:00:26;100162.38;;;10.67;96.65
65131;BME280;51709;54.912;8.316;2023-11-19T22:05:47;100160.31;;;10.69;96.70
65131;BME280;51709;54.912;8.316;2023-11-19T22:11:08;100162.53;;;10.73;96.50
65131;BME280;51709;54.912;8.316;2023-11-19T22:16:28;100158.94;;;10.81;96.57
65131;BME280;51709;54.912;8.316;2023-11-19T22:21:48;100168.56;;;10.91;96.44
65131;BME280;51709;54.912;8.316;2023-11-19T22:27:09;100163.22;;;11.06;96.30
65131;BME280;51709;54.912;8.316;2023-11-19T22:32:31;100159.22;;;11.16;96.05
65131;BME280;51709;54.912;8.316;2023-11-19T22:37:54;100167.50;;;11.23;96.07
65131;BME280;51709;54.912;8.316;2023-11-19T22:43:15;100172.06;;;11.30;95.86
65131;BME280;51709;54.912;8.316;2023-11-19T22:48:36;100181.75;;;11.33;95.68
65131;BME280;51709;54.912;8.316;2023-11-19T22:53:57;100173.44;;;11.26;95.94
65131;BME280;51709;54.912;8.316;2023-11-19T22:59:17;100181.59;;;11.26;95.84
65131;BME280;51709;54.912;8.316;2023-11-19T23:04:37;100179.53;;;11.28;95.69
65131;BME280;51709;54.912;8.316;2023-11-19T23:09:58;100185.13;;;11.35;95.60
65131;BME280;51709;54.912;8.316;2023-11-19T23:15:22;100179.81;;;11.41;95.53
65131;BME280;51709;54.912;8.316;2023-11-19T23:20:45;100185.06;;;11.43;95.33
65131;BME280;51709;54.912;8.316;2023-11-19T23:26:06;100187.13;;;11.41;95.33
65131;BME280;51709;54.912;8.316;2023-11-19T23:31:27;100192.03;;;11.45;95.41
65131;BME280;51709;54.912;8.316;2023-11-19T23:36:48;100193.00;;;11.52;95.25
65131;BME280;51709;54.912;8.316;2023-11-19T23:42:09;100211.28;;;11.67;95.22
65131;BME280;51709;54.912;8.316;2023-11-19T23:47:29;100209.16;;;11.77;94.68
65131;BME280;51709;54.912;8.316;2023-11-19T23:52:50;100204.88;;;11.82;94.27
65131;BME280;51709;54.912;8.316;2023-11-19T23:58:11;100196.16;;;11.87;94.33
